createdAt,value
2022-09-11T00:01:15.195Z,100.00
2022-09-11T00:03:44.028Z,100.00
2022-09-11T00:06:13.852Z,100.00
2022-09-11T00:08:41.889Z,100.00
2022-09-11T00:11:17.515Z,100.00
2022-09-11T00:13:46.705Z,100.00
2022-09-11T00:16:35.465Z,100.00
2022-09-11T00:19:05.516Z,100.00
2022-09-11T00:21:33.067Z,100.00
2022-09-11T00:23:59.673Z,100.00
2022-09-11T00:26:26.774Z,100.00
2022-09-11T00:28:54.076Z,100.00
2022-09-11T00:31:23.835Z,100.00
2022-09-11T00:33:51.764Z,100.00
2022-09-11T00:36:24.404Z,100.00
2022-09-11T00:38:51.527Z,100.00
2022-09-11T00:41:27.967Z,100.00
2022-09-11T00:44:29.251Z,100.00
2022-09-11T00:47:03.113Z,100.00
2022-09-11T00:49:42.912Z,100.00
2022-09-11T00:52:15.119Z,100.00
2022-09-11T00:55:00.025Z,100.00
2022-09-11T00:57:30.666Z,100.00
2022-09-11T00:59:59.549Z,100.00
2022-09-11T01:02:28.380Z,100.00
2022-09-11T01:04:55.792Z,100.00
2022-09-11T01:07:23.229Z,100.00
2022-09-11T01:09:51.217Z,100.00
2022-09-11T01:12:18.514Z,100.00
2022-09-11T01:15:06.790Z,100.00
2022-09-11T01:17:41.081Z,100.00
2022-09-11T01:20:23.851Z,100.00
2022-09-11T01:23:18.182Z,100.00
2022-09-11T01:26:00.362Z,100.00
2022-09-11T01:28:40.086Z,100.00
2022-09-11T01:31:11.933Z,100.00
2022-09-11T01:33:47.892Z,100.00
2022-09-11T01:36:28.886Z,100.00
2022-09-11T01:39:00.926Z,100.00
2022-09-11T01:41:41.402Z,100.00
2022-09-11T01:44:21.509Z,100.00
2022-09-11T01:46:52.037Z,100.00
2022-09-11T01:49:36.932Z,100.00
2022-09-11T01:52:09.728Z,100.00
2022-09-11T01:54:42.761Z,100.00
2022-09-11T01:57:19.791Z,100.00
2022-09-11T01:59:57.061Z,100.00
2022-09-11T02:02:36.340Z,100.00
2022-09-11T02:05:15.610Z,100.00
2022-09-11T02:07:49.972Z,100.00
2022-09-11T02:10:21.893Z,100.00
2022-09-11T02:13:22.623Z,100.00
2022-09-11T02:15:58.274Z,100.00
2022-09-11T02:18:48.056Z,100.00
2022-09-11T02:21:14.569Z,100.00
2022-09-11T02:23:41.349Z,100.00
2022-09-11T02:26:12.893Z,100.00
2022-09-11T02:28:39.471Z,100.00
2022-09-11T02:31:07.808Z,100.00
2022-09-11T02:33:36.966Z,100.00
2022-09-11T02:36:28.364Z,100.00
2022-09-11T02:39:44.347Z,100.00
2022-09-11T02:42:27.092Z,100.00
2022-09-11T02:45:23.249Z,100.00
2022-09-11T02:48:27.260Z,100.00
2022-09-11T02:51:00.142Z,100.00
2022-09-11T02:53:44.981Z,100.00
2022-09-11T02:56:32.920Z,100.00
2022-09-11T02:59:05.787Z,100.00
2022-09-11T03:01:49.710Z,100.00
2022-09-11T03:04:18.271Z,100.00
2022-09-11T03:06:45.316Z,100.00
2022-09-11T03:09:11.812Z,100.00
2022-09-11T03:11:38.746Z,100.00
2022-09-11T03:14:05.279Z,100.00
2022-09-11T03:16:31.879Z,100.00
2022-09-11T03:18:59.555Z,100.00
2022-09-11T03:21:26.069Z,100.00
2022-09-11T03:23:52.577Z,100.00
2022-09-11T03:26:19.187Z,100.00
2022-09-11T03:28:46.078Z,100.00
2022-09-11T03:31:13.876Z,100.00
2022-09-11T03:33:40.526Z,100.00
2022-09-11T03:36:07.377Z,100.00
2022-09-11T03:38:33.919Z,100.00
2022-09-11T03:41:02.819Z,100.00
2022-09-11T03:43:29.743Z,100.00
2022-09-11T03:45:56.460Z,100.00
2022-09-11T03:48:25.182Z,100.00
2022-09-11T03:50:51.692Z,100.00
2022-09-11T03:53:18.636Z,100.00
2022-09-11T03:55:46.381Z,100.00
2022-09-11T03:58:14.136Z,100.00
2022-09-11T04:00:43.970Z,100.00
2022-09-11T04:03:11.909Z,100.00
2022-09-11T04:05:38.681Z,100.00
2022-09-11T04:08:06.433Z,100.00
2022-09-11T04:10:34.273Z,100.00
2022-09-11T04:13:01.668Z,100.00
2022-09-11T04:15:28.244Z,100.00
2022-09-11T04:17:55.057Z,100.00
2022-09-11T04:20:21.563Z,100.00
2022-09-11T04:22:48.099Z,100.00
2022-09-11T04:25:14.661Z,100.00
2022-09-11T04:27:41.336Z,100.00
2022-09-11T04:30:08.660Z,100.00
2022-09-11T04:32:36.180Z,100.00
2022-09-11T04:35:03.607Z,100.00
2022-09-11T04:37:30.170Z,100.00
2022-09-11T04:39:58.796Z,100.00
2022-09-11T04:42:26.393Z,100.00
2022-09-11T04:44:52.919Z,100.00
2022-09-11T04:47:20.943Z,100.00
2022-09-11T04:49:47.443Z,100.00
2022-09-11T04:52:15.328Z,100.00
2022-09-11T04:54:41.930Z,100.00
2022-09-11T04:57:09.151Z,100.00
2022-09-11T04:59:35.933Z,100.00
2022-09-11T05:02:03.493Z,100.00
2022-09-11T05:04:30.071Z,100.00
2022-09-11T05:06:56.618Z,100.00
2022-09-11T05:09:23.136Z,100.00
2022-09-11T05:11:50.482Z,100.00
2022-09-11T05:14:18.399Z,100.00
2022-09-11T05:16:46.026Z,100.00
2022-09-11T05:19:12.741Z,100.00
2022-09-11T05:21:39.495Z,100.00
2022-09-11T05:24:06.126Z,100.00
2022-09-11T05:26:34.886Z,100.00
2022-09-11T05:29:04.160Z,100.00
2022-09-11T05:31:32.239Z,100.00
2022-09-11T05:34:00.544Z,100.00
2022-09-11T05:36:27.954Z,100.00
2022-09-11T05:38:54.729Z,100.00
2022-09-11T05:41:21.507Z,100.00
2022-09-11T05:43:48.360Z,100.00
2022-09-11T05:46:17.376Z,100.00
2022-09-11T05:48:44.720Z,100.00
2022-09-11T05:51:16.497Z,100.00
2022-09-11T05:53:43.331Z,100.00
2022-09-11T05:56:13.525Z,100.00
2022-09-11T05:58:40.331Z,100.00
2022-09-11T06:01:12.996Z,100.00
2022-09-11T06:03:40.536Z,100.00
2022-09-11T06:06:09.580Z,100.00
2022-09-11T06:08:37.411Z,100.00
2022-09-11T06:11:09.459Z,100.00
2022-09-11T06:13:41.673Z,100.00
2022-09-11T06:16:19.044Z,100.00
2022-09-11T06:18:49.271Z,100.00
2022-09-11T06:21:20.245Z,100.00
2022-09-11T06:23:48.605Z,100.00
2022-09-11T06:26:17.681Z,100.00
2022-09-11T06:28:44.300Z,100.00
2022-09-11T06:31:19.238Z,100.00
2022-09-11T06:33:46.703Z,100.00
2022-09-11T06:36:18.599Z,100.00
2022-09-11T06:38:45.631Z,100.00
2022-09-11T06:41:15.370Z,100.00
2022-09-11T06:43:43.175Z,100.00
2022-09-11T06:46:13.061Z,100.00
2022-09-11T06:48:41.098Z,100.00
2022-09-11T06:51:13.990Z,100.00
2022-09-11T06:53:41.275Z,100.00
2022-09-11T06:56:12.976Z,100.00
2022-09-11T06:58:41.093Z,100.00
2022-09-11T07:01:14.954Z,100.00
2022-09-11T07:03:45.633Z,100.00
2022-09-11T07:06:17.358Z,100.00
2022-09-11T07:08:44.116Z,100.00
2022-09-11T07:11:14.202Z,100.00
2022-09-11T07:13:40.904Z,100.00
2022-09-11T07:16:10.045Z,100.00
2022-09-11T07:18:41.753Z,100.00
2022-09-11T07:21:14.307Z,100.00
2022-09-11T07:23:41.670Z,100.00
2022-09-11T07:26:11.246Z,100.00
2022-09-11T07:28:38.804Z,100.00
2022-09-11T07:31:11.354Z,100.00
2022-09-11T07:33:46.092Z,100.00
2022-09-11T07:36:14.768Z,100.00
2022-09-11T07:38:42.783Z,100.00
2022-09-11T07:41:11.000Z,100.00
2022-09-11T07:43:39.052Z,100.00
2022-09-11T07:46:06.505Z,100.00
2022-09-11T07:48:33.240Z,100.00
2022-09-11T07:51:04.453Z,100.00
2022-09-11T07:53:36.159Z,100.00
2022-09-11T07:56:09.952Z,100.00
2022-09-11T07:58:39.062Z,100.00
2022-09-11T08:01:07.495Z,100.00
2022-09-11T08:03:36.638Z,100.00
2022-09-11T08:06:10.212Z,100.00
2022-09-11T08:08:38.211Z,100.00
2022-09-11T08:11:13.865Z,100.00
2022-09-11T08:13:41.564Z,100.00
2022-09-11T08:16:09.058Z,100.00
2022-09-11T08:18:37.136Z,100.00
2022-09-11T08:21:12.779Z,100.00
2022-09-11T08:23:41.552Z,100.00
2022-09-11T08:26:10.863Z,100.00
2022-09-11T08:28:38.912Z,100.00
2022-09-11T08:31:06.697Z,100.00
2022-09-11T08:33:33.553Z,100.00
2022-09-11T08:36:03.791Z,100.00
2022-09-11T08:38:30.903Z,100.00
2022-09-11T08:41:00.001Z,100.00
2022-09-11T08:43:33.409Z,100.00
2022-09-11T08:46:05.110Z,100.00
2022-09-11T08:48:57.027Z,100.00
2022-09-11T08:51:25.936Z,100.00
2022-09-11T08:53:54.521Z,100.00
2022-09-11T08:56:23.885Z,100.00
2022-09-11T08:59:28.017Z,100.00
2022-09-11T09:02:03.692Z,100.00
2022-09-11T09:05:07.015Z,100.00
2022-09-11T09:08:06.238Z,100.00
2022-09-11T09:10:38.861Z,100.00
2022-09-11T09:13:15.205Z,100.00
2022-09-11T09:15:58.703Z,100.00
2022-09-11T09:18:33.512Z,100.00
2022-09-11T09:21:06.431Z,100.00
2022-09-11T09:23:41.220Z,100.00
2022-09-11T09:26:17.563Z,100.00
2022-09-11T09:28:47.784Z,100.00
2022-09-11T09:31:20.859Z,100.00
2022-09-11T09:34:06.074Z,100.00
2022-09-11T09:36:39.279Z,100.00
2022-09-11T09:39:17.573Z,100.00
2022-09-11T09:41:53.849Z,98.48
2022-09-11T09:44:42.602Z,99.23
2022-09-11T09:47:14.233Z,98.70
2022-09-11T09:49:41.784Z,96.92
2022-09-11T09:52:24.420Z,93.55
2022-09-11T09:54:54.288Z,97.63
2022-09-11T09:57:24.821Z,97.03
2022-09-11T10:00:03.703Z,96.96
2022-09-11T10:02:39.914Z,96.10
2022-09-11T10:05:21.005Z,95.53
2022-09-11T10:07:57.147Z,97.35
2022-09-11T10:10:38.124Z,97.15
2022-09-11T10:13:20.931Z,96.27
2022-09-11T10:15:52.824Z,96.69
2022-09-11T10:18:42.753Z,93.97
2022-09-11T10:21:12.318Z,94.93
2022-09-11T10:23:52.138Z,94.57
2022-09-11T10:26:49.800Z,94.39
2022-09-11T10:29:24.331Z,96.99
2022-09-11T10:32:05.390Z,96.78
2022-09-11T10:34:38.517Z,96.82
2022-09-11T10:37:24.158Z,91.16
2022-09-11T10:39:51.305Z,90.48
2022-09-11T10:42:23.071Z,91.67
2022-09-11T10:44:52.012Z,91.35
2022-09-11T10:47:25.106Z,89.71
2022-09-11T10:50:20.271Z,88.22
2022-09-11T10:53:13.741Z,89.03
2022-09-11T10:56:00.796Z,88.93
2022-09-11T10:58:36.734Z,79.55
2022-09-11T11:01:03.650Z,88.03
2022-09-11T11:03:30.238Z,81.68
2022-09-11T11:06:24.079Z,85.10
2022-09-11T11:09:30.827Z,77.39
2022-09-11T11:12:03.685Z,85.86
2022-09-11T11:14:57.927Z,84.54
2022-09-11T11:17:42.101Z,82.80
2022-09-11T11:20:21.029Z,89.01
2022-09-11T11:22:53.503Z,85.92
2022-09-11T11:25:38.314Z,84.58
2022-09-11T11:28:40.292Z,87.96
2022-09-11T11:31:16.845Z,90.56
2022-09-11T11:34:29.157Z,88.76
2022-09-11T11:37:07.864Z,89.94
2022-09-11T11:40:09.929Z,89.46
2022-09-11T11:42:46.796Z,89.66
2022-09-11T11:45:33.015Z,89.48
2022-09-11T11:48:06.191Z,84.48
2022-09-11T11:50:40.653Z,85.70
2022-09-11T11:53:19.085Z,85.47
2022-09-11T11:56:02.078Z,83.38
2022-09-11T11:58:55.592Z,83.20
2022-09-11T12:01:44.407Z,82.99
2022-09-11T12:04:21.899Z,80.99
2022-09-11T12:06:48.572Z,82.19
2022-09-11T12:09:18.013Z,83.55
2022-09-11T12:11:53.894Z,82.28
2022-09-11T12:14:27.548Z,81.18
2022-09-11T12:16:56.387Z,85.07
2022-09-11T12:19:27.745Z,86.38
2022-09-11T12:21:54.314Z,83.94
2022-09-11T12:24:41.262Z,82.11
2022-09-11T12:27:33.362Z,76.35
2022-09-11T12:30:10.319Z,82.03
2022-09-11T12:32:44.342Z,79.56
2022-09-11T12:35:26.777Z,80.58
2022-09-11T12:38:09.908Z,84.59
2022-09-11T12:40:47.233Z,84.66
2022-09-11T12:43:27.030Z,81.87
2022-09-11T12:45:53.627Z,80.98
2022-09-11T12:48:26.057Z,83.35
2022-09-11T12:50:57.077Z,82.33
2022-09-11T12:53:33.306Z,71.70
2022-09-11T12:56:04.706Z,72.78
2022-09-11T12:58:39.116Z,72.10
2022-09-11T13:01:13.502Z,78.72
2022-09-11T13:04:09.292Z,73.97
2022-09-11T13:06:41.009Z,76.76
2022-09-11T13:09:18.108Z,82.17
2022-09-11T13:11:49.640Z,75.12
2022-09-11T13:14:28.329Z,76.83
2022-09-11T13:17:00.305Z,72.98
2022-09-11T13:19:35.769Z,80.67
2022-09-11T13:22:19.807Z,81.05
2022-09-11T13:24:46.308Z,80.26
2022-09-11T13:27:26.524Z,77.36
2022-09-11T13:29:56.269Z,80.63
2022-09-11T13:32:23.396Z,80.56
2022-09-11T13:35:02.881Z,79.41
2022-09-11T13:37:36.114Z,70.75
2022-09-11T13:40:05.109Z,76.85
2022-09-11T13:42:32.861Z,79.97
2022-09-11T13:45:01.923Z,75.23
2022-09-11T13:47:31.438Z,70.53
2022-09-11T13:50:05.421Z,79.24
2022-09-11T13:52:34.251Z,80.00
2022-09-11T13:55:10.209Z,79.99
2022-09-11T13:58:00.796Z,76.83
2022-09-11T14:00:42.330Z,79.27
2022-09-11T14:03:32.266Z,79.03
2022-09-11T14:06:05.910Z,78.30
2022-09-11T14:08:35.395Z,79.82
2022-09-11T14:11:10.420Z,79.22
2022-09-11T14:13:53.354Z,79.08
2022-09-11T14:16:25.217Z,80.99
2022-09-11T14:19:07.884Z,79.81
2022-09-11T14:21:38.209Z,82.84
2022-09-11T14:24:24.555Z,84.11
2022-09-11T14:26:51.160Z,85.29
2022-09-11T14:29:25.678Z,85.17
2022-09-11T14:31:53.227Z,86.03
2022-09-11T14:34:20.965Z,85.58
2022-09-11T14:36:50.231Z,85.51
2022-09-11T14:39:34.131Z,85.39
2022-09-11T14:42:01.138Z,85.73
2022-09-11T14:44:29.098Z,85.22
2022-09-11T14:46:57.787Z,84.46
2022-09-11T14:49:24.421Z,86.36
2022-09-11T14:51:55.543Z,85.95
2022-09-11T14:54:22.836Z,84.93
2022-09-11T14:56:49.723Z,85.42
2022-09-11T14:59:16.832Z,85.46
2022-09-11T15:01:43.469Z,85.33
2022-09-11T15:04:18.481Z,85.80
2022-09-11T15:06:45.099Z,85.93
2022-09-11T15:09:11.633Z,85.17
2022-09-11T15:11:39.564Z,85.54
2022-09-11T15:14:27.870Z,85.32
2022-09-11T15:16:58.131Z,82.35
2022-09-11T15:19:24.778Z,83.56
2022-09-11T15:21:51.332Z,83.55
2022-09-11T15:24:17.827Z,82.87
2022-09-11T15:26:44.466Z,84.43
2022-09-11T15:29:11.525Z,85.29
2022-09-11T15:31:38.353Z,83.89
2022-09-11T15:34:06.771Z,83.46
2022-09-11T15:36:34.606Z,83.88
2022-09-11T15:39:03.431Z,83.63
2022-09-11T15:41:30.567Z,84.14
2022-09-11T15:43:57.567Z,84.07
2022-09-11T15:46:24.439Z,82.42
2022-09-11T15:48:51.317Z,83.42
2022-09-11T15:51:20.726Z,81.61
2022-09-11T15:53:48.173Z,83.48
2022-09-11T15:56:18.677Z,83.79
2022-09-11T15:58:48.266Z,83.95
2022-09-11T16:01:20.839Z,82.82
2022-09-11T16:03:55.306Z,83.25
2022-09-11T16:06:23.664Z,83.50
2022-09-11T16:08:52.041Z,84.47
2022-09-11T16:11:22.908Z,83.93
2022-09-11T16:13:49.928Z,84.44
2022-09-11T16:16:16.824Z,84.91
2022-09-11T16:18:43.809Z,84.83
2022-09-11T16:21:12.888Z,84.75
2022-09-11T16:23:40.734Z,85.55
2022-09-11T16:26:10.583Z,85.37
2022-09-11T16:28:39.010Z,85.36
2022-09-11T16:31:07.099Z,86.07
2022-09-11T16:33:40.503Z,86.08
2022-09-11T16:36:12.831Z,86.11
2022-09-11T16:38:43.580Z,86.27
2022-09-11T16:41:16.099Z,85.91
2022-09-11T16:43:45.348Z,86.13
2022-09-11T16:46:13.779Z,86.56
2022-09-11T16:48:40.291Z,86.87
2022-09-11T16:51:07.651Z,87.02
2022-09-11T16:53:35.667Z,87.12
2022-09-11T16:56:11.325Z,87.37
2022-09-11T16:58:38.265Z,87.20
2022-09-11T17:01:10.007Z,87.45
2022-09-11T17:03:41.349Z,87.38
2022-09-11T17:06:08.843Z,87.16
2022-09-11T17:08:35.599Z,87.35
2022-09-11T17:11:02.527Z,87.47
2022-09-11T17:13:29.455Z,87.87
2022-09-11T17:16:02.621Z,87.67
2022-09-11T17:18:29.379Z,87.82
2022-09-11T17:20:58.886Z,87.73
2022-09-11T17:23:26.358Z,88.07
2022-09-11T17:25:52.911Z,87.57
2022-09-11T17:28:20.235Z,88.17
2022-09-11T17:30:46.833Z,88.36
2022-09-11T17:33:14.915Z,88.22
2022-09-11T17:35:43.098Z,88.35
2022-09-11T17:38:11.084Z,87.81
2022-09-11T17:40:39.078Z,87.59
2022-09-11T17:43:05.640Z,87.32
2022-09-11T17:45:32.314Z,87.66
2022-09-11T17:48:01.103Z,87.74
2022-09-11T17:50:28.071Z,87.91
2022-09-11T17:52:54.635Z,88.47
2022-09-11T17:55:21.578Z,89.12
2022-09-11T17:57:54.548Z,89.24
2022-09-11T18:00:21.161Z,88.80
2022-09-11T18:02:50.094Z,89.04
2022-09-11T18:05:16.659Z,88.98
2022-09-11T18:07:43.346Z,89.23
2022-09-11T18:10:09.973Z,89.17
2022-09-11T18:12:36.542Z,89.03
2022-09-11T18:15:03.818Z,89.06
2022-09-11T18:17:30.397Z,89.81
2022-09-11T18:19:56.949Z,89.27
2022-09-11T18:22:23.658Z,89.41
2022-09-11T18:24:52.909Z,89.49
2022-09-11T18:27:19.953Z,90.04
2022-09-11T18:29:46.894Z,89.81
2022-09-11T18:32:13.448Z,90.57
2022-09-11T18:34:40.031Z,90.50
2022-09-11T18:37:07.671Z,91.08
2022-09-11T18:39:34.475Z,90.45
2022-09-11T18:42:01.487Z,90.66
2022-09-11T18:44:28.135Z,91.48
2022-09-11T18:46:55.287Z,91.06
2022-09-11T18:49:22.781Z,91.64
2022-09-11T18:51:49.563Z,91.00
2022-09-11T18:54:18.479Z,92.19
2022-09-11T18:56:45.517Z,91.26
2022-09-11T18:59:13.104Z,90.97
2022-09-11T19:01:40.703Z,91.00
2022-09-11T19:04:10.216Z,91.21
2022-09-11T19:06:40.289Z,91.37
2022-09-11T19:09:10.431Z,90.95
2022-09-11T19:11:37.311Z,91.15
2022-09-11T19:14:06.797Z,90.62
2022-09-11T19:16:34.926Z,90.17
2022-09-11T19:19:02.822Z,89.99
2022-09-11T19:21:29.771Z,90.51
2022-09-11T19:24:00.301Z,90.60
2022-09-11T19:26:28.751Z,90.57
2022-09-11T19:28:56.847Z,90.53
2022-09-11T19:31:25.608Z,90.93
2022-09-11T19:33:53.446Z,91.03
2022-09-11T19:36:22.769Z,91.12
2022-09-11T19:38:51.855Z,90.61
2022-09-11T19:41:23.679Z,90.66
2022-09-11T19:43:50.889Z,90.34
2022-09-11T19:46:21.729Z,90.91
2022-09-11T19:49:07.169Z,91.35
2022-09-11T19:51:42.072Z,90.94
2022-09-11T19:54:11.010Z,90.47
2022-09-11T19:56:39.391Z,90.90
2022-09-11T19:59:08.074Z,90.41
2022-09-11T20:01:34.776Z,90.08
2022-09-11T20:04:01.457Z,89.66
2022-09-11T20:06:32.792Z,90.94
2022-09-11T20:09:29.453Z,90.12
2022-09-11T20:11:47.009Z,90.99
2022-09-11T20:14:14.671Z,91.84
2022-09-11T20:16:41.639Z,91.24
2022-09-11T20:19:10.257Z,91.30
2022-09-11T20:21:38.378Z,91.00
2022-09-11T20:24:07.325Z,91.68
2022-09-11T20:26:34.099Z,91.83
2022-09-11T20:29:07.133Z,91.81
2022-09-11T20:31:42.378Z,93.01
2022-09-11T20:34:11.666Z,91.45
2022-09-11T20:36:38.207Z,91.36
2022-09-11T20:39:05.040Z,91.15
2022-09-11T20:41:33.208Z,90.78
2022-09-11T20:44:03.608Z,92.35
2022-09-11T20:46:30.330Z,91.09
2022-09-11T20:48:56.909Z,91.06
2022-09-11T20:51:23.707Z,92.13
2022-09-11T20:53:50.751Z,91.54
2022-09-11T20:56:20.776Z,90.57
2022-09-11T20:58:47.818Z,90.75
2022-09-11T21:01:17.620Z,90.45
2022-09-11T21:03:47.083Z,91.02
2022-09-11T21:06:14.285Z,92.58
2022-09-11T21:08:42.252Z,92.49
2022-09-11T21:11:10.590Z,91.71
2022-09-11T21:13:38.674Z,91.88
2022-09-11T21:16:13.146Z,93.15
2022-09-11T21:18:44.336Z,92.85
2022-09-11T21:21:10.867Z,93.13
2022-09-11T21:23:37.479Z,93.73
2022-09-11T21:26:07.793Z,95.34
2022-09-11T21:28:34.422Z,97.53
2022-09-11T21:31:01.056Z,96.15
2022-09-11T21:33:28.050Z,96.40
2022-09-11T21:35:55.222Z,95.95
2022-09-11T21:38:30.273Z,98.32
2022-09-11T21:40:59.161Z,98.84
2022-09-11T21:43:27.242Z,99.75
2022-09-11T21:45:54.107Z,98.59
2022-09-11T21:48:20.933Z,96.22
2022-09-11T21:50:47.568Z,98.58
2022-09-11T21:53:14.462Z,95.83
2022-09-11T21:55:43.302Z,97.69
2022-09-11T21:58:15.507Z,98.82
2022-09-11T22:00:43.193Z,96.96
2022-09-11T22:03:12.319Z,95.72
2022-09-11T22:05:44.116Z,94.44
2022-09-11T22:08:12.357Z,99.01
2022-09-11T22:10:48.244Z,96.03
2022-09-11T22:13:16.301Z,96.69
2022-09-11T22:15:44.420Z,96.68
2022-09-11T22:18:11.109Z,98.19
2022-09-11T22:20:38.355Z,96.01
2022-09-11T22:23:05.503Z,94.59
2022-09-11T22:25:32.969Z,93.95
2022-09-11T22:27:59.586Z,93.33
2022-09-11T22:30:28.005Z,93.63
2022-09-11T22:32:54.845Z,97.98
2022-09-11T22:35:21.620Z,98.39
2022-09-11T22:37:48.189Z,95.67
2022-09-11T22:40:15.068Z,94.43
2022-09-11T22:42:41.683Z,93.90
2022-09-11T22:45:08.785Z,93.79
2022-09-11T22:47:35.508Z,94.94
2022-09-11T22:50:02.416Z,94.94
2022-09-11T22:52:29.213Z,94.03
2022-09-11T22:54:55.684Z,95.75
2022-09-11T22:57:22.241Z,98.62
2022-09-11T22:59:49.018Z,100.00
2022-09-11T23:02:15.987Z,98.91
2022-09-11T23:05:02.654Z,98.10
2022-09-11T23:07:29.258Z,99.89
2022-09-11T23:09:56.913Z,100.00
2022-09-11T23:12:23.471Z,99.61
2022-09-11T23:14:49.913Z,99.11
2022-09-11T23:17:16.767Z,95.53
2022-09-11T23:19:43.288Z,95.95
2022-09-11T23:22:09.814Z,100.00
2022-09-11T23:24:36.461Z,98.89
2022-09-11T23:27:02.988Z,98.55
2022-09-11T23:29:29.625Z,97.59
2022-09-11T23:31:56.607Z,96.38
2022-09-11T23:34:23.170Z,99.06
2022-09-11T23:36:49.704Z,98.18
2022-09-11T23:39:16.317Z,99.31
2022-09-11T23:41:42.885Z,97.19
2022-09-11T23:44:09.903Z,96.33
2022-09-11T23:46:36.465Z,96.74
2022-09-11T23:49:02.984Z,97.48
2022-09-11T23:51:29.587Z,99.90
2022-09-11T23:53:56.243Z,97.39
2022-09-11T23:56:22.749Z,98.71
2022-09-11T23:58:49.733Z,98.83
